EJA283 KTEB-KFRG
Flight info
| Callsign | EJA283 |
|---|---|
| Flight time | 0h 26m |
| Altitude | 19000 |
| Route | BREZY CMK DENNA/N0415F170 T705 BELTT T303 DPK |
| Aircraft | C700/M-SBDGHM1RWXY/LB2 |
Departure
| Time | 2026-05-05 20:49 |
|---|---|
| Airport | Teterboro Airport (KTEB) |
Arrival
| Time | 2026-05-05 21:16 |
|---|---|
| Airport | Republic Airport (KFRG) |
| Time | Latitude | Longitude | Altitude | Speed | Heading |
|---|---|---|---|---|---|
| 2026-05-05 20:33 | 40.84211 | -74.06545 | 9 ft | 0 kts | 299° |
| 2026-05-05 20:39 | 40.84210 | -74.06545 | 9 ft | 1 kts | 299° |
| 2026-05-05 20:40 | 40.84201 | -74.06524 | 9 ft | 3 kts | 299° |
| 2026-05-05 20:40 | 40.84190 | -74.06506 | 9 ft | 3 kts | 336° |
| 2026-05-05 20:40 | 40.84173 | -74.06502 | 9 ft | 0 kts | 14° |
| 2026-05-05 20:43 | 40.84193 | -74.06493 | 9 ft | 8 kts | 22° |
| 2026-05-05 20:43 | 40.84245 | -74.06451 | 9 ft | 7 kts | 56° |
| 2026-05-05 20:43 | 40.84245 | -74.06368 | 9 ft | 12 kts | 97° |
| 2026-05-05 20:43 | 40.84240 | -74.06248 | 9 ft | 11 kts | 94° |
| 2026-05-05 20:44 | 40.84257 | -74.06155 | 9 ft | 11 kts | 19° |
| 2026-05-05 20:44 | 40.84354 | -74.06147 | 8 ft | 18 kts | 2° |
| 2026-05-05 20:44 | 40.84499 | -74.06137 | 9 ft | 23 kts | 4° |
| 2026-05-05 20:44 | 40.84634 | -74.06127 | 9 ft | 17 kts | 5° |
| 2026-05-05 20:45 | 40.84922 | -74.06105 | 9 ft | 22 kts | 3° |
| 2026-05-05 20:45 | 40.85068 | -74.06094 | 9 ft | 16 kts | 2° |
| 2026-05-05 20:45 | 40.85146 | -74.06088 | 10 ft | 9 kts | 4° |
| 2026-05-05 20:46 | 40.85194 | -74.06048 | 10 ft | 9 kts | 49° |
| 2026-05-05 20:46 | 40.85247 | -74.05969 | 9 ft | 14 kts | 53° |
| 2026-05-05 20:46 | 40.85322 | -74.05858 | 9 ft | 18 kts | 47° |
| 2026-05-05 20:46 | 40.85411 | -74.05729 | 12 ft | 21 kts | 47° |
| 2026-05-05 20:47 | 40.85508 | -74.05584 | 13 ft | 18 kts | 47° |
| 2026-05-05 20:47 | 40.85585 | -74.05473 | 15 ft | 16 kts | 47° |
| 2026-05-05 20:47 | 40.85655 | -74.05370 | 14 ft | 11 kts | 45° |
| 2026-05-05 20:47 | 40.85700 | -74.05340 | 14 ft | 7 kts | 339° |
| 2026-05-05 20:48 | 40.85742 | -74.05386 | 14 ft | 6 kts | 317° |
| 2026-05-05 20:48 | 40.85755 | -74.05439 | 14 ft | 7 kts | 238° |
| 2026-05-05 20:48 | 40.85747 | -74.05452 | 14 ft | 0 kts | 228° |
| 2026-05-05 20:49 | 40.85635 | -74.05618 | 15 ft | 69 kts | 230° |
| 2026-05-05 20:49 | 40.85091 | -74.06412 | 203 ft | 152 kts | 231° |
| 2026-05-05 20:49 | 40.84354 | -74.07668 | 992 ft | 190 kts | 229° |
| 2026-05-05 20:50 | 40.83544 | -74.09047 | 2413 ft | 196 kts | 230° |
| 2026-05-05 20:50 | 40.82601 | -74.10428 | 3945 ft | 213 kts | 228° |
| 2026-05-05 20:50 | 40.81685 | -74.12135 | 4958 ft | 249 kts | 244° |
| 2026-05-05 20:50 | 40.81441 | -74.14397 | 5009 ft | 254 kts | 272° |
| 2026-05-05 20:51 | 40.82165 | -74.16532 | 5008 ft | 265 kts | 302° |
| 2026-05-05 20:51 | 40.83701 | -74.17976 | 5012 ft | 283 kts | 332° |
| 2026-05-05 20:51 | 40.85640 | -74.18579 | 5030 ft | 287 kts | 345° |
| 2026-05-05 20:51 | 40.87660 | -74.18959 | 6178 ft | 293 kts | 347° |
| 2026-05-05 20:52 | 40.89664 | -74.19293 | 8059 ft | 295 kts | 347° |
| 2026-05-05 20:52 | 40.91692 | -74.19594 | 10104 ft | 292 kts | 347° |
| 2026-05-05 20:52 | 40.93739 | -74.19646 | 12002 ft | 299 kts | 357° |
| 2026-05-05 20:52 | 40.95851 | -74.19289 | 13661 ft | 311 kts | 1° |
| 2026-05-05 20:53 | 40.98006 | -74.18752 | 15182 ft | 321 kts | 6° |
| 2026-05-05 20:53 | 41.00207 | -74.18051 | 16638 ft | 330 kts | 7° |
| 2026-05-05 20:53 | 41.02464 | -74.17353 | 18083 ft | 337 kts | 7° |
| 2026-05-05 20:53 | 41.04812 | -74.16693 | 18964 ft | 357 kts | 6° |
| 2026-05-05 20:54 | 41.07320 | -74.15993 | 19013 ft | 385 kts | 7° |
| 2026-05-05 20:54 | 41.09978 | -74.14879 | 19020 ft | 427 kts | 20° |
| 2026-05-05 20:54 | 41.12627 | -74.12892 | 19014 ft | 446 kts | 32° |
| 2026-05-05 20:54 | 41.14974 | -74.10154 | 19009 ft | 453 kts | 44° |
| 2026-05-05 20:55 | 41.16865 | -74.06778 | 19014 ft | 460 kts | 57° |
| 2026-05-05 20:55 | 41.18186 | -74.02918 | 19011 ft | 460 kts | 71° |
| 2026-05-05 20:55 | 41.19090 | -73.98844 | 19020 ft | 460 kts | 73° |
| 2026-05-05 20:55 | 41.19979 | -73.94773 | 19024 ft | 460 kts | 73° |
| 2026-05-05 20:56 | 41.20881 | -73.90695 | 19026 ft | 460 kts | 73° |
| 2026-05-05 20:56 | 41.21782 | -73.86613 | 19030 ft | 460 kts | 73° |
| 2026-05-05 20:56 | 41.22678 | -73.82535 | 19034 ft | 460 kts | 73° |
| 2026-05-05 20:56 | 41.23560 | -73.78517 | 19038 ft | 458 kts | 73° |
| 2026-05-05 20:57 | 41.24450 | -73.74455 | 19036 ft | 459 kts | 73° |
| 2026-05-05 20:57 | 41.25343 | -73.70377 | 19039 ft | 460 kts | 73° |
| 2026-05-05 20:57 | 41.26233 | -73.66297 | 19030 ft | 459 kts | 73° |
| 2026-05-05 20:57 | 41.27103 | -73.62215 | 19033 ft | 459 kts | 76° |
| 2026-05-05 20:58 | 41.27550 | -73.58027 | 19020 ft | 458 kts | 87° |
| 2026-05-05 20:58 | 41.27477 | -73.53799 | 19010 ft | 457 kts | 97° |
| 2026-05-05 20:58 | 41.26989 | -73.49640 | 19011 ft | 454 kts | 101° |
| 2026-05-05 20:58 | 41.26494 | -73.45495 | 19013 ft | 454 kts | 101° |
| 2026-05-05 20:59 | 41.26012 | -73.41395 | 19012 ft | 455 kts | 101° |
| 2026-05-05 20:59 | 41.25506 | -73.37248 | 19016 ft | 454 kts | 101° |
| 2026-05-05 20:59 | 41.25002 | -73.33144 | 18511 ft | 444 kts | 101° |
| 2026-05-05 20:59 | 41.24527 | -73.29198 | 17908 ft | 423 kts | 101° |
| 2026-05-05 21:00 | 41.23936 | -73.25438 | 17229 ft | 410 kts | 109° |
| 2026-05-05 21:00 | 41.22879 | -73.21952 | 16562 ft | 405 kts | 119° |
| 2026-05-05 21:00 | 41.21412 | -73.18791 | 15911 ft | 401 kts | 130° |
| 2026-05-05 21:00 | 41.19580 | -73.16029 | 15277 ft | 396 kts | 140° |
| 2026-05-05 21:01 | 41.17494 | -73.13772 | 14671 ft | 389 kts | 149° |
| 2026-05-05 21:01 | 41.15408 | -73.11492 | 14064 ft | 387 kts | 139° |
| 2026-05-05 21:01 | 41.13630 | -73.08918 | 13556 ft | 369 kts | 137° |
| 2026-05-05 21:01 | 41.11906 | -73.06510 | 13060 ft | 351 kts | 139° |
| 2026-05-05 21:02 | 41.10249 | -73.04228 | 12602 ft | 337 kts | 139° |
| 2026-05-05 21:02 | 41.08488 | -73.02355 | 12156 ft | 312 kts | 160° |
| 2026-05-05 21:02 | 41.06488 | -73.01618 | 11767 ft | 289 kts | 181° |
| 2026-05-05 21:02 | 41.04550 | -73.01839 | 11386 ft | 275 kts | 201° |
| 2026-05-05 21:03 | 41.02848 | -73.02871 | 11027 ft | 266 kts | 219° |
| 2026-05-05 21:03 | 41.01445 | -73.04443 | 10679 ft | 263 kts | 226° |
| 2026-05-05 21:03 | 41.00076 | -73.06048 | 10335 ft | 262 kts | 226° |
| 2026-05-05 21:03 | 40.98732 | -73.07618 | 9993 ft | 260 kts | 226° |
| 2026-05-05 21:04 | 40.97378 | -73.09199 | 9658 ft | 259 kts | 226° |
| 2026-05-05 21:04 | 40.96033 | -73.10771 | 9246 ft | 257 kts | 226° |
| 2026-05-05 21:04 | 40.94725 | -73.12291 | 8804 ft | 241 kts | 225° |
| 2026-05-05 21:04 | 40.93449 | -73.13783 | 8223 ft | 249 kts | 225° |
| 2026-05-05 21:05 | 40.92131 | -73.15327 | 7656 ft | 257 kts | 225° |
| 2026-05-05 21:05 | 40.90848 | -73.16811 | 7091 ft | 236 kts | 224° |
| 2026-05-05 21:05 | 40.89609 | -73.18251 | 6680 ft | 239 kts | 225° |
| 2026-05-05 21:05 | 40.88351 | -73.19719 | 6357 ft | 242 kts | 224° |
| 2026-05-05 21:06 | 40.87106 | -73.21166 | 6036 ft | 241 kts | 224° |
| 2026-05-05 21:06 | 40.85814 | -73.22669 | 5709 ft | 250 kts | 224° |
| 2026-05-05 21:06 | 40.84529 | -73.24157 | 5378 ft | 242 kts | 223° |
| 2026-05-05 21:06 | 40.83283 | -73.25604 | 5072 ft | 236 kts | 223° |
| 2026-05-05 21:07 | 40.82055 | -73.27035 | 4764 ft | 235 kts | 223° |
| 2026-05-05 21:07 | 40.80817 | -73.28465 | 4429 ft | 237 kts | 223° |
| 2026-05-05 21:07 | 40.79578 | -73.29901 | 4098 ft | 236 kts | 223° |
| 2026-05-05 21:07 | 40.78645 | -73.31594 | 4049 ft | 229 kts | 246° |
| 2026-05-05 21:08 | 40.78341 | -73.33571 | 4045 ft | 218 kts | 264° |
| 2026-05-05 21:08 | 40.78598 | -73.35495 | 4047 ft | 211 kts | 283° |
| 2026-05-05 21:08 | 40.79346 | -73.37149 | 4043 ft | 214 kts | 303° |
| 2026-05-05 21:08 | 40.80557 | -73.38382 | 4043 ft | 230 kts | 324° |
| 2026-05-05 21:09 | 40.82144 | -73.38928 | 4051 ft | 244 kts | 350° |
| 2026-05-05 21:09 | 40.83846 | -73.38534 | 4041 ft | 256 kts | 18° |
| 2026-05-05 21:09 | 40.85305 | -73.37188 | 4053 ft | 259 kts | 43° |
| 2026-05-05 21:09 | 40.86589 | -73.35506 | 4055 ft | 260 kts | 41° |
| 2026-05-05 21:10 | 40.88128 | -73.34339 | 4054 ft | 250 kts | 7° |
| 2026-05-05 21:10 | 40.89680 | -73.34562 | 4044 ft | 208 kts | 324° |
| 2026-05-05 21:10 | 40.90766 | -73.35685 | 4051 ft | 197 kts | 300° |
| 2026-05-05 21:10 | 40.91332 | -73.37296 | 3990 ft | 195 kts | 275° |
| 2026-05-05 21:11 | 40.91288 | -73.39020 | 3761 ft | 188 kts | 251° |
| 2026-05-05 21:11 | 40.90690 | -73.40496 | 3521 ft | 181 kts | 229° |
| 2026-05-05 21:11 | 40.89688 | -73.41461 | 3304 ft | 180 kts | 208° |
| 2026-05-05 21:11 | 40.88443 | -73.41778 | 3067 ft | 189 kts | 186° |
| 2026-05-05 21:12 | 40.87130 | -73.41713 | 2796 ft | 187 kts | 185° |
| 2026-05-05 21:12 | 40.85856 | -73.41681 | 2541 ft | 179 kts | 185° |
| 2026-05-05 21:12 | 40.84627 | -73.41652 | 2293 ft | 175 kts | 185° |
| 2026-05-05 21:12 | 40.83424 | -73.41639 | 2053 ft | 169 kts | 186° |
| 2026-05-05 21:13 | 40.82275 | -73.41624 | 1815 ft | 165 kts | 184° |
| 2026-05-05 21:13 | 40.81197 | -73.41589 | 1598 ft | 141 kts | 185° |
| 2026-05-05 21:13 | 40.80264 | -73.41573 | 1400 ft | 126 kts | 185° |
| 2026-05-05 21:13 | 40.79483 | -73.41546 | 1241 ft | 96 kts | 186° |
| 2026-05-05 21:14 | 40.78813 | -73.41545 | 1093 ft | 96 kts | 187° |
| 2026-05-05 21:14 | 40.78157 | -73.41548 | 965 ft | 95 kts | 185° |
| 2026-05-05 21:14 | 40.77482 | -73.41524 | 833 ft | 97 kts | 185° |
| 2026-05-05 21:14 | 40.76782 | -73.41505 | 645 ft | 102 kts | 182° |
| 2026-05-05 21:15 | 40.76084 | -73.41502 | 542 ft | 100 kts | 183° |
| 2026-05-05 21:15 | 40.75362 | -73.41480 | 394 ft | 104 kts | 182° |
| 2026-05-05 21:15 | 40.74662 | -73.41470 | 291 ft | 100 kts | 184° |
| 2026-05-05 21:15 | 40.73957 | -73.41456 | 138 ft | 100 kts | 184° |
| 2026-05-05 21:16 | 40.73323 | -73.41444 | 71 ft | 78 kts | 190° |
| 2026-05-05 21:16 | 40.72965 | -73.41445 | 64 ft | 31 kts | 178° |
| 2026-05-05 21:16 | 40.72825 | -73.41439 | 79 ft | 11 kts | 179° |
| 2026-05-05 21:16 | 40.72742 | -73.41446 | 79 ft | 11 kts | 206° |
| 2026-05-05 21:17 | 40.72722 | -73.41508 | 72 ft | 4 kts | 265° |
| 2026-05-05 21:17 | 40.72697 | -73.41545 | 76 ft | 8 kts | 194° |
| 2026-05-05 21:17 | 40.72623 | -73.41543 | 75 ft | 13 kts | 179° |
| 2026-05-05 21:17 | 40.72537 | -73.41543 | 73 ft | 11 kts | 178° |
| 2026-05-05 21:18 | 40.72462 | -73.41541 | 73 ft | 11 kts | 180° |
| 2026-05-05 21:18 | 40.72389 | -73.41540 | 70 ft | 10 kts | 178° |
| 2026-05-05 21:18 | 40.72352 | -73.41606 | 68 ft | 12 kts | 277° |
| 2026-05-05 21:18 | 40.72337 | -73.41655 | 62 ft | 5 kts | 203° |
| 2026-05-05 21:19 | 40.72320 | -73.41662 | 63 ft | 0 kts | 199° |